Time;durP1;ratioP1;P1;durP2;ratioP2;P2;SDS_P1;SDS_P2;PMS_P1;PMS_P2;Temp;Humidity;BMP_temperature;BMP_pressure;BME280_temperature;BME280_humidity;BME280_pressure;Samples;Min_cycle;Max_cycle;Signal;HPM_P1;HPM_P2
2023/10/03 00:00:31;;;;;;;;;;;20.70;90.40;;;;;;5094577;28;20299;-54
2023/10/03 00:02:57;;;;;;;;;;;20.70;90.50;;;;;;5110352;28;19947;-53
2023/10/03 00:05:35;;;;;;;;;;;20.70;90.40;;;;;;5094075;28;21381;-53
2023/10/03 00:08:01;;;;;;;;;;;20.70;90.50;;;;;;5094471;28;19912;-54
2023/10/03 00:10:26;;;;;;;;;;;20.70;90.50;;;;;;5094408;28;19946;-55
2023/10/03 00:12:52;;;;;;;;;;;20.70;90.50;;;;;;5094414;28;20369;-54
2023/10/03 00:15:18;;;;;;;;;;;20.70;90.40;;;;;;5094331;28;19912;-54
2023/10/03 00:17:44;;;;;;;;;;;20.70;90.40;;;;;;5094297;28;20379;-55
2023/10/03 00:20:12;;;;;;;;;;;20.70;90.40;;;;;;5109727;28;19951;-54
2023/10/03 00:22:38;;;;;;;;;;;20.70;90.40;;;;;;5094227;28;19915;-54
2023/10/03 00:25:05;;;;;;;;;;;20.70;90.50;;;;;;5094912;28;19915;-55
2023/10/03 00:27:35;;;;;;;;;;;20.60;90.50;;;;;;5094011;28;19955;-54
2023/10/03 00:30:00;;;;;;;;;;;20.60;90.50;;;;;;5094058;28;19911;-55
2023/10/03 00:32:26;;;;;;;;;;;20.70;90.60;;;;;;5094041;28;20252;-54
2023/10/03 00:34:51;;;;;;;;;;;20.60;90.50;;;;;;5075958;28;20375;-55
2023/10/03 00:37:17;;;;;;;;;;;20.60;90.40;;;;;;5075852;28;19908;-54
2023/10/03 00:39:43;;;;;;;;;;;20.60;90.50;;;;;;5093896;28;19916;-54
2023/10/03 00:42:10;;;;;;;;;;;20.70;90.60;;;;;;5093736;28;20324;-55
2023/10/03 00:44:37;;;;;;;;;;;20.60;90.50;;;;;;5093782;28;19908;-55
2023/10/03 00:47:06;;;;;;;;;;;20.60;90.50;;;;;;5093678;28;19908;-54
2023/10/03 00:49:32;;;;;;;;;;;20.60;90.50;;;;;;5093752;28;19939;-55
2023/10/03 00:51:57;;;;;;;;;;;20.60;90.50;;;;;;5093310;28;20445;-54
2023/10/03 00:54:23;;;;;;;;;;;20.60;90.60;;;;;;5076433;28;19912;-54
2023/10/03 00:56:49;;;;;;;;;;;20.60;90.50;;;;;;5093880;28;19916;-54
2023/10/03 00:59:14;;;;;;;;;;;20.60;90.60;;;;;;5109130;28;19914;-54
2023/10/03 01:01:41;;;;;;;;;;;20.60;90.50;;;;;;5093406;28;19912;-54
2023/10/03 01:04:11;;;;;;;;;;;20.60;90.50;;;;;;5093423;28;19908;-55
2023/10/03 01:06:36;;;;;;;;;;;20.60;90.50;;;;;;5093749;28;19962;-54
2023/10/03 01:09:03;;;;;;;;;;;20.60;90.50;;;;;;5093347;28;19912;-53
2023/10/03 01:11:29;;;;;;;;;;;20.60;90.50;;;;;;5093479;28;20002;-55
2023/10/03 01:13:59;;;;;;;;;;;20.60;90.50;;;;;;5093342;28;19987;-54
2023/10/03 01:16:36;;;;;;;;;;;20.60;90.50;;;;;;5093428;28;20003;-54
2023/10/03 01:19:15;;;;;;;;;;;20.60;90.50;;;;;;5076838;28;20356;-55
2023/10/03 01:21:41;;;;;;;;;;;20.60;90.50;;;;;;5099843;28;20426;-54
2023/10/03 01:24:13;;;;;;;;;;;20.60;90.50;;;;;;5093067;28;19952;-54
2023/10/03 01:26:38;;;;;;;;;;;20.60;90.50;;;;;;5093778;28;19912;-53
2023/10/03 01:29:04;;;;;;;;;;;20.60;90.40;;;;;;5093086;28;19931;-55
2023/10/03 01:31:29;;;;;;;;;;;20.70;90.40;;;;;;5108822;28;19908;-55
2023/10/03 01:33:55;;;;;;;;;;;20.60;90.50;;;;;;5093101;28;19908;-54
2023/10/03 01:36:20;;;;;;;;;;;20.60;90.30;;;;;;5093021;28;19908;-54
2023/10/03 01:38:45;;;;;;;;;;;20.60;90.30;;;;;;5093030;28;19957;-54
2023/10/03 01:41:12;;;;;;;;;;;20.60;90.30;;;;;;5092827;28;19912;-54
2023/10/03 01:43:40;;;;;;;;;;;20.60;90.40;;;;;;5092989;28;19919;-54
2023/10/03 01:46:07;;;;;;;;;;;20.60;90.20;;;;;;5093286;28;19954;-54
2023/10/03 01:48:34;;;;;;;;;;;20.60;90.30;;;;;;5093026;28;19919;-53
2023/10/03 01:51:01;;;;;;;;;;;20.60;90.20;;;;;;5092809;28;19908;-54
2023/10/03 01:53:27;;;;;;;;;;;20.60;90.20;;;;;;5093011;28;19908;-55
2023/10/03 01:55:53;;;;;;;;;;;20.60;90.10;;;;;;5108456;28;20003;-53
2023/10/03 01:58:23;;;;;;;;;;;20.60;90.30;;;;;;5093197;28;19920;-54
2023/10/03 02:00:50;;;;;;;;;;;20.60;90.30;;;;;;5099551;28;20406;-55
2023/10/03 02:03:16;;;;;;;;;;;20.60;90.30;;;;;;5094203;28;19951;-54
2023/10/03 02:05:42;;;;;;;;;;;20.60;90.20;;;;;;5096965;28;19940;-55
2023/10/03 02:08:13;;;;;;;;;;;20.60;90.30;;;;;;5096973;28;19918;-55
2023/10/03 02:10:39;;;;;;;;;;;20.60;90.20;;;;;;5112551;28;19912;-53
2023/10/03 02:13:11;;;;;;;;;;;20.60;90.20;;;;;;5096757;28;19919;-54
2023/10/03 02:15:38;;;;;;;;;;;20.60;90.10;;;;;;5103454;28;19912;-53
2023/10/03 02:18:05;;;;;;;;;;;20.60;90.10;;;;;;5096621;28;20079;-53
2023/10/03 02:20:30;;;;;;;;;;;20.60;90.00;;;;;;5096549;28;20291;-55
2023/10/03 02:22:56;;;;;;;;;;;20.60;90.10;;;;;;5096582;28;19938;-55
2023/10/03 02:25:26;;;;;;;;;;;20.50;90.00;;;;;;5097113;28;20360;-54
2023/10/03 02:27:53;;;;;;;;;;;20.50;90.10;;;;;;5061675;28;19955;-53
2023/10/03 02:30:23;;;;;;;;;;;20.50;90.10;;;;;;5096343;28;19912;-55
2023/10/03 02:32:49;;;;;;;;;;;20.50;90.10;;;;;;5096382;28;19912;-54
2023/10/03 02:35:15;;;;;;;;;;;20.50;90.10;;;;;;5096386;28;19944;-54
2023/10/03 02:37:40;;;;;;;;;;;20.40;90.10;;;;;;5096326;28;20295;-54
2023/10/03 02:40:07;;;;;;;;;;;20.40;90.10;;;;;;5096157;28;19908;-54
2023/10/03 02:42:36;;;;;;;;;;;20.40;90.10;;;;;;5096142;28;19917;-54
2023/10/03 02:45:03;;;;;;;;;;;20.40;90.10;;;;;;5096204;28;19909;-53
2023/10/03 02:47:29;;;;;;;;;;;20.40;90.10;;;;;;5096010;28;19912;-55
2023/10/03 02:49:55;;;;;;;;;;;20.40;90.10;;;;;;5096038;28;19908;-54
2023/10/03 02:52:21;;;;;;;;;;;20.40;90.10;;;;;;5095684;28;19927;-54
2023/10/03 02:54:48;;;;;;;;;;;20.40;90.00;;;;;;5096547;28;19915;-55
2023/10/03 02:57:15;;;;;;;;;;;20.40;90.00;;;;;;5095955;28;20008;-54
2023/10/03 02:59:44;;;;;;;;;;;20.40;90.00;;;;;;5095814;28;19930;-54
2023/10/03 03:02:14;;;;;;;;;;;20.40;90.00;;;;;;5078123;28;20302;-53
2023/10/03 03:04:41;;;;;;;;;;;20.40;89.90;;;;;;5095806;28;19915;-54
2023/10/03 03:07:06;;;;;;;;;;;20.40;89.90;;;;;;5095624;28;20017;-55
2023/10/03 03:09:36;;;;;;;;;;;20.40;90.20;;;;;;5095976;28;19943;-54
2023/10/03 03:12:03;;;;;;;;;;;20.40;89.80;;;;;;5095572;28;19974;-54
2023/10/03 03:14:28;;;;;;;;;;;20.40;89.70;;;;;;5095370;28;19912;-55
2023/10/03 03:16:54;;;;;;;;;;;20.40;89.60;;;;;;5111204;28;19908;-55
2023/10/03 03:19:20;;;;;;;;;;;20.40;89.50;;;;;;5095469;28;19908;-54
2023/10/03 03:21:46;;;;;;;;;;;20.40;89.50;;;;;;5095304;28;20006;-55
2023/10/03 03:24:15;;;;;;;;;;;20.40;89.50;;;;;;5095269;28;20366;-54
2023/10/03 03:26:46;;;;;;;;;;;20.40;89.40;;;;;;5110918;28;19908;-54
2023/10/03 03:29:21;;;;;;;;;;;20.40;89.40;;;;;;5095204;28;20275;-54
2023/10/03 03:31:49;;;;;;;;;;;20.40;89.30;;;;;;5095221;28;20435;-55
2023/10/03 03:34:15;;;;;;;;;;;20.40;89.20;;;;;;5095280;28;19909;-55
2023/10/03 03:36:40;;;;;;;;;;;20.40;89.20;;;;;;5095187;28;19908;-54
2023/10/03 03:39:12;;;;;;;;;;;20.40;89.30;;;;;;5110698;28;19908;-55
2023/10/03 03:41:39;;;;;;;;;;;20.40;89.20;;;;;;5084594;28;19960;-54
2023/10/03 03:44:11;;;;;;;;;;;20.30;89.20;;;;;;5095103;28;19943;-55
2023/10/03 03:46:37;;;;;;;;;;;20.30;89.20;;;;;;5095268;28;20427;-53
2023/10/03 03:49:04;;;;;;;;;;;20.30;89.20;;;;;;5094797;28;20221;-54
2023/10/03 03:51:30;;;;;;;;;;;20.40;89.20;;;;;;5094778;28;19920;-54
2023/10/03 03:53:55;;;;;;;;;;;20.30;89.00;;;;;;5101581;28;19908;-55
2023/10/03 03:56:21;;;;;;;;;;;20.30;89.00;;;;;;5095252;28;19915;-55
2023/10/03 03:58:48;;;;;;;;;;;20.30;89.80;;;;;;5094811;28;19908;-55
2023/10/03 04:01:14;;;;;;;;;;;20.30;89.00;;;;;;5094386;28;19961;-55
2023/10/03 04:03:42;;;;;;;;;;;20.30;88.80;;;;;;5076697;28;19969;-55
2023/10/03 04:06:08;;;;;;;;;;;20.30;88.80;;;;;;5094498;28;19908;-54
2023/10/03 04:08:35;;;;;;;;;;;20.20;88.90;;;;;;5094563;28;19908;-54
2023/10/03 04:11:01;;;;;;;;;;;20.20;88.80;;;;;;5094364;28;20332;-54
2023/10/03 04:13:26;;;;;;;;;;;20.20;88.60;;;;;;5094504;28;19998;-55
2023/10/03 04:15:53;;;;;;;;;;;20.20;88.50;;;;;;5109938;28;20400;-55
2023/10/03 04:18:19;;;;;;;;;;;20.20;88.50;;;;;;5076476;28;19946;-53
2023/10/03 04:20:46;;;;;;;;;;;20.20;88.40;;;;;;5094165;28;19919;-54
2023/10/03 04:23:13;;;;;;;;;;;20.20;88.30;;;;;;5076661;28;19999;-55
2023/10/03 04:25:39;;;;;;;;;;;20.20;88.40;;;;;;5109148;28;19912;-54
2023/10/03 04:28:05;;;;;;;;;;;20.20;88.10;;;;;;5094044;28;19908;-53
2023/10/03 04:30:31;;;;;;;;;;;20.20;88.30;;;;;;5094109;28;20428;-54
2023/10/03 04:32:57;;;;;;;;;;;20.20;88.10;;;;;;5093933;28;19908;-54
2023/10/03 04:35:23;;;;;;;;;;;20.20;88.00;;;;;;5094049;28;19912;-53
2023/10/03 04:37:51;;;;;;;;;;;20.10;88.00;;;;;;5094057;28;20400;-53
2023/10/03 04:40:35;;;;;;;;;;;20.20;88.00;;;;;;5093913;28;20377;-53
2023/10/03 04:43:07;;;;;;;;;;;20.20;87.90;;;;;;5093831;28;19908;-55
2023/10/03 04:45:35;;;;;;;;;;;20.20;87.70;;;;;;5100539;28;19957;-54
2023/10/03 04:48:01;;;;;;;;;;;20.20;87.70;;;;;;5094069;28;19912;-54
2023/10/03 04:50:26;;;;;;;;;;;20.20;87.50;;;;;;5093645;28;20052;-54
2023/10/03 04:52:52;;;;;;;;;;;20.20;87.50;;;;;;5075451;28;19966;-53
2023/10/03 04:55:18;;;;;;;;;;;20.20;87.50;;;;;;5094877;28;19915;-54
2023/10/03 04:57:44;;;;;;;;;;;20.20;87.40;;;;;;5093541;28;19955;-54
2023/10/03 05:00:11;;;;;;;;;;;20.20;87.20;;;;;;5093401;28;19908;-55
2023/10/03 05:02:36;;;;;;;;;;;20.20;87.10;;;;;;5093852;28;19915;-55
2023/10/03 05:05:02;;;;;;;;;;;20.20;87.80;;;;;;5093415;28;20002;-55
2023/10/03 05:07:28;;;;;;;;;;;20.20;87.00;;;;;;5093704;28;19908;-54
2023/10/03 05:09:54;;;;;;;;;;;20.20;86.90;;;;;;5093402;28;20356;-55
2023/10/03 05:12:20;;;;;;;;;;;20.20;86.90;;;;;;5093448;28;19919;-53
2023/10/03 05:14:46;;;;;;;;;;;20.20;86.90;;;;;;5093225;28;19959;-54
2023/10/03 05:17:12;;;;;;;;;;;20.10;86.90;;;;;;5093201;28;20332;-53
2023/10/03 05:19:38;;;;;;;;;;;20.10;86.90;;;;;;5075239;28;20291;-54
2023/10/03 05:22:04;;;;;;;;;;;20.10;87.50;;;;;;5093183;28;19912;-54
2023/10/03 05:24:32;;;;;;;;;;;20.10;86.80;;;;;;5093868;28;19908;-54
2023/10/03 05:26:58;;;;;;;;;;;20.10;86.70;;;;;;5093101;28;19908;-54
2023/10/03 05:29:25;;;;;;;;;;;20.10;86.60;;;;;;5093169;28;19915;-55
2023/10/03 05:31:51;;;;;;;;;;;20.10;86.50;;;;;;5093105;28;19915;-54
2023/10/03 05:34:20;;;;;;;;;;;20.10;86.40;;;;;;5093098;28;19908;-54
2023/10/03 05:36:46;;;;;;;;;;;20.10;86.40;;;;;;5092733;28;19908;-55
2023/10/03 05:39:11;;;;;;;;;;;20.10;86.20;;;;;;5092422;28;19908;-53
2023/10/03 05:41:41;;;;;;;;;;;20.10;86.30;;;;;;5093108;28;19912;-54
2023/10/03 05:44:11;;;;;;;;;;;20.10;86.30;;;;;;5075147;28;19962;-55
2023/10/03 05:46:40;;;;;;;;;;;20.10;86.10;;;;;;5074885;28;19908;-55
2023/10/03 05:49:06;;;;;;;;;;;20.10;86.00;;;;;;5092894;28;20282;-54
2023/10/03 05:51:33;;;;;;;;;;;20.10;85.90;;;;;;5108443;28;19931;-54
2023/10/03 05:53:59;;;;;;;;;;;20.10;85.80;;;;;;5092912;28;20330;-54
2023/10/03 05:56:24;;;;;;;;;;;20.10;85.90;;;;;;5093416;28;19908;-54
2023/10/03 05:58:50;;;;;;;;;;;20.10;85.70;;;;;;5092940;28;20363;-55
2023/10/03 06:01:16;;;;;;;;;;;20.10;85.70;;;;;;5092734;28;19912;-54
2023/10/03 06:03:41;;;;;;;;;;;20.10;85.80;;;;;;5092694;28;19915;-53
2023/10/03 06:06:07;;;;;;;;;;;20.10;85.70;;;;;;5092849;28;19915;-53
2023/10/03 06:08:32;;;;;;;;;;;20.10;85.60;;;;;;5092713;28;19914;-54
2023/10/03 06:10:59;;;;;;;;;;;20.20;85.70;;;;;;5092779;28;19919;-53
2023/10/03 06:13:25;;;;;;;;;;;20.10;85.60;;;;;;5092642;28;19908;-54
2023/10/03 06:15:52;;;;;;;;;;;20.10;85.60;;;;;;5092733;28;20024;-54
2023/10/03 06:18:18;;;;;;;;;;;20.10;85.60;;;;;;5092705;28;19912;-53
2023/10/03 06:20:43;;;;;;;;;;;20.10;85.60;;;;;;5092571;28;19965;-55
2023/10/03 06:23:09;;;;;;;;;;;20.10;85.60;;;;;;5092587;28;20425;-55
2023/10/03 06:25:35;;;;;;;;;;;20.10;85.60;;;;;;5093164;28;19908;-55
2023/10/03 06:28:01;;;;;;;;;;;20.10;85.60;;;;;;5092568;28;19915;-54
2023/10/03 06:30:27;;;;;;;;;;;20.00;85.60;;;;;;5074461;28;19914;-55
2023/10/03 06:32:52;;;;;;;;;;;20.00;85.50;;;;;;5092709;28;20006;-55
2023/10/03 06:35:18;;;;;;;;;;;20.00;85.50;;;;;;5092512;28;19908;-55
2023/10/03 06:37:44;;;;;;;;;;;20.00;85.50;;;;;;5092769;28;19912;-54
2023/10/03 06:40:13;;;;;;;;;;;20.00;85.50;;;;;;5092205;28;20356;-54
2023/10/03 06:42:39;;;;;;;;;;;20.00;86.30;;;;;;5074184;28;19919;-55
2023/10/03 06:45:08;;;;;;;;;;;20.00;85.50;;;;;;5092394;28;19948;-55
2023/10/03 06:47:34;;;;;;;;;;;19.90;85.30;;;;;;5092398;28;19908;-54
2023/10/03 06:50:00;;;;;;;;;;;20.00;85.50;;;;;;5094893;28;19908;-54
2023/10/03 06:52:26;;;;;;;;;;;20.00;85.40;;;;;;5095860;28;20402;-54
2023/10/03 06:54:51;;;;;;;;;;;20.00;85.30;;;;;;5111627;28;20003;-54
2023/10/03 06:57:17;;;;;;;;;;;20.00;85.30;;;;;;5096178;28;19916;-54
2023/10/03 06:59:42;;;;;;;;;;;20.00;85.10;;;;;;5061047;28;20386;-54
2023/10/03 07:02:08;;;;;;;;;;;20.00;85.10;;;;;;5095757;28;19912;-54
2023/10/03 07:04:33;;;;;;;;;;;20.00;85.20;;;;;;5077941;28;19908;-55
2023/10/03 07:06:59;;;;;;;;;;;20.00;85.10;;;;;;5095674;28;19912;-54
2023/10/03 07:09:24;;;;;;;;;;;20.00;85.00;;;;;;5095716;28;19908;-54
2023/10/03 07:11:50;;;;;;;;;;;20.00;84.90;;;;;;5111332;28;19908;-54
2023/10/03 07:14:16;;;;;;;;;;;19.90;85.00;;;;;;5077458;28;19908;-55
2023/10/03 07:16:42;;;;;;;;;;;20.00;85.20;;;;;;5111299;28;20420;-55
2023/10/03 07:19:16;;;;;;;;;;;20.00;85.00;;;;;;5095544;28;19908;-56
2023/10/03 07:21:42;;;;;;;;;;;20.00;85.00;;;;;;5095426;28;19959;-55
2023/10/03 07:24:07;;;;;;;;;;;20.00;85.30;;;;;;5095581;28;20007;-54
2023/10/03 07:26:33;;;;;;;;;;;20.10;85.30;;;;;;5095938;28;20436;-54
2023/10/03 07:29:00;;;;;;;;;;;20.10;85.20;;;;;;5095399;28;19924;-55
2023/10/03 07:31:26;;;;;;;;;;;20.10;85.30;;;;;;5095286;28;19915;-54
2023/10/03 07:33:53;;;;;;;;;;;20.10;86.30;;;;;;5095227;28;19908;-55
2023/10/03 07:36:19;;;;;;;;;;;20.10;85.60;;;;;;5095467;28;20008;-54
2023/10/03 07:38:47;;;;;;;;;;;20.20;85.70;;;;;;5095137;28;19951;-54
2023/10/03 07:41:13;;;;;;;;;;;20.20;85.60;;;;;;5077406;28;20295;-54
2023/10/03 07:43:42;;;;;;;;;;;20.20;85.70;;;;;;5076940;28;19912;-54
2023/10/03 07:46:07;;;;;;;;;;;20.20;85.70;;;;;;5094961;28;20006;-55
2023/10/03 07:48:33;;;;;;;;;;;20.20;85.70;;;;;;5094867;28;19908;-54
2023/10/03 07:50:58;;;;;;;;;;;20.20;85.80;;;;;;5094723;28;19941;-55
2023/10/03 07:53:24;;;;;;;;;;;20.30;86.00;;;;;;5094894;28;20322;-54
2023/10/03 07:55:49;;;;;;;;;;;20.30;86.10;;;;;;5095318;28;19915;-54
2023/10/03 07:58:15;;;;;;;;;;;20.30;86.10;;;;;;5094714;28;19908;-55
2023/10/03 08:00:44;;;;;;;;;;;20.30;86.20;;;;;;5093710;28;19916;-54
2023/10/03 08:03:11;;;;;;;;;;;20.30;86.20;;;;;;5077074;28;19999;-55
2023/10/03 08:05:37;;;;;;;;;;;20.30;86.40;;;;;;5094531;28;19908;-54
2023/10/03 08:08:03;;;;;;;;;;;20.30;86.40;;;;;;5094586;28;19931;-54
2023/10/03 08:10:30;;;;;;;;;;;20.30;86.80;;;;;;5094438;28;19943;-55
2023/10/03 08:12:55;;;;;;;;;;;20.30;86.70;;;;;;5094386;28;19912;-54
2023/10/03 08:15:22;;;;;;;;;;;20.30;86.60;;;;;;5094251;28;19923;-54
2023/10/03 08:17:48;;;;;;;;;;;20.30;86.90;;;;;;5094410;28;19954;-54
2023/10/03 08:20:18;;;;;;;;;;;20.30;86.90;;;;;;5094181;28;19908;-55
2023/10/03 08:22:50;;;;;;;;;;;20.30;87.00;;;;;;5094333;28;20015;-54
2023/10/03 08:25:22;;;;;;;;;;;20.30;87.00;;;;;;5101728;28;19943;-55
2023/10/03 08:27:48;;;;;;;;;;;20.30;87.10;;;;;;5076031;28;19908;-55
2023/10/03 08:30:25;;;;;;;;;;;20.40;87.30;;;;;;5094086;28;20267;-54
2023/10/03 08:32:52;;;;;;;;;;;20.40;87.10;;;;;;5100886;28;20024;-55
2023/10/03 08:35:18;;;;;;;;;;;20.40;87.10;;;;;;5094139;28;19919;-55
2023/10/03 08:37:43;;;;;;;;;;;20.40;87.00;;;;;;5109529;28;19920;-55
2023/10/03 08:40:19;;;;;;;;;;;20.40;87.10;;;;;;5093864;28;19912;-55
2023/10/03 08:42:52;;;;;;;;;;;20.40;87.10;;;;;;5109595;28;19957;-54
2023/10/03 08:45:22;;;;;;;;;;;20.50;87.10;;;;;;5075523;28;19908;-54
2023/10/03 08:47:51;;;;;;;;;;;20.50;87.30;;;;;;5093794;28;19915;-54
2023/10/03 08:50:29;;;;;;;;;;;20.60;87.10;;;;;;5093714;28;19957;-54
2023/10/03 08:52:58;;;;;;;;;;;20.60;87.20;;;;;;5093651;28;19917;-54
2023/10/03 08:55:26;;;;;;;;;;;20.60;86.90;;;;;;5094274;28;19908;-55
2023/10/03 08:57:52;;;;;;;;;;;20.70;86.80;;;;;;5075867;28;19952;-54
2023/10/03 09:00:18;;;;;;;;;;;20.70;87.40;;;;;;5093481;28;19998;-55
2023/10/03 09:02:46;;;;;;;;;;;20.80;86.50;;;;;;5075489;28;19912;-54
2023/10/03 09:05:15;;;;;;;;;;;20.80;86.30;;;;;;5093494;28;19914;-54
2023/10/03 09:07:44;;;;;;;;;;;20.80;86.10;;;;;;5075729;28;20053;-55
2023/10/03 09:10:20;;;;;;;;;;;20.80;85.90;;;;;;5093487;28;19919;-54
2023/10/03 09:12:45;;;;;;;;;;;20.80;86.00;;;;;;5108806;28;19908;-55
2023/10/03 09:15:11;;;;;;;;;;;20.70;86.00;;;;;;5093325;28;19908;-55
2023/10/03 09:17:36;;;;;;;;;;;20.70;86.10;;;;;;5093269;28;19929;-54
2023/10/03 09:20:04;;;;;;;;;;;20.70;86.30;;;;;;5093264;28;19954;-56
2023/10/03 09:22:30;;;;;;;;;;;20.70;86.50;;;;;;5075613;28;19920;-54
2023/10/03 09:24:56;;;;;;;;;;;20.60;86.50;;;;;;5098770;28;19908;-56
2023/10/03 09:27:27;;;;;;;;;;;20.60;86.60;;;;;;5113478;28;19965;-54
2023/10/03 09:29:52;;;;;;;;;;;20.60;86.70;;;;;;5120524;28;19908;-55
2023/10/03 09:32:24;;;;;;;;;;;20.60;86.90;;;;;;5113661;28;19907;-55
2023/10/03 09:35:09;;;;;;;;;;;20.60;87.00;;;;;;5120357;28;20322;-54
2023/10/03 09:37:34;;;;;;;;;;;20.60;87.30;;;;;;5095142;28;20416;-55
2023/10/03 09:40:01;;;;;;;;;;;20.50;87.30;;;;;;5113355;28;19907;-54
2023/10/03 09:42:27;;;;;;;;;;;20.50;87.60;;;;;;5095026;28;20391;-55
2023/10/03 09:44:57;;;;;;;;;;;20.50;87.80;;;;;;5095124;28;19908;-54
2023/10/03 09:47:29;;;;;;;;;;;20.50;87.90;;;;;;5113258;28;19979;-55
2023/10/03 09:50:03;;;;;;;;;;;20.50;88.00;;;;;;5120040;28;20024;-55
2023/10/03 09:52:30;;;;;;;;;;;20.50;88.10;;;;;;5113144;28;20399;-54
2023/10/03 09:54:59;;;;;;;;;;;20.50;88.00;;;;;;5113230;28;19908;-54
2023/10/03 09:57:28;;;;;;;;;;;20.60;87.80;;;;;;5113173;28;19907;-55
2023/10/03 09:59:53;;;;;;;;;;;20.60;87.80;;;;;;5113209;28;19943;-55
2023/10/03 10:02:30;;;;;;;;;;;20.60;87.60;;;;;;5113100;28;19959;-54
2023/10/03 10:04:59;;;;;;;;;;;20.60;87.60;;;;;;5120202;28;20405;-55
2023/10/03 10:07:33;;;;;;;;;;;20.60;87.50;;;;;;5113102;28;19908;-55
2023/10/03 10:10:07;;;;;;;;;;;20.60;87.40;;;;;;5096015;28;19945;-55
2023/10/03 10:12:37;;;;;;;;;;;20.60;87.40;;;;;;5119955;28;20006;-54
2023/10/03 10:17:46;;;;;;;;;;;20.60;87.30;;;;;;5120066;28;19914;-55
2023/10/03 10:20:20;;;;;;;;;;;20.60;87.30;;;;;;5112926;28;19931;-54
2023/10/03 10:22:58;;;;;;;;;;;20.60;87.30;;;;;;5119840;28;19908;-55
2023/10/03 10:25:27;;;;;;;;;;;20.60;87.40;;;;;;5116128;28;19908;-54
2023/10/03 10:28:20;;;;;;;;;;;20.50;87.30;;;;;;5116904;28;19922;-55
2023/10/03 10:31:04;;;;;;;;;;;20.60;88.10;;;;;;5061293;28;19908;-55
2023/10/03 10:33:30;;;;;;;;;;;20.60;87.40;;;;;;5116707;28;19977;-55
2023/10/03 10:36:09;;;;;;;;;;;20.50;87.50;;;;;;5116719;28;19907;-54
2023/10/03 10:38:34;;;;;;;;;;;20.50;87.50;;;;;;5116757;28;19907;-55
2023/10/03 10:41:21;;;;;;;;;;;20.50;87.40;;;;;;5116603;28;20023;-55
2023/10/03 10:44:08;;;;;;;;;;;20.50;87.50;;;;;;5116799;28;19908;-54
2023/10/03 10:46:47;;;;;;;;;;;20.50;87.50;;;;;;5116551;28;20372;-55
2023/10/03 10:49:30;;;;;;;;;;;20.50;87.70;;;;;;5116398;28;19915;-55
2023/10/03 10:52:00;;;;;;;;;;;20.50;87.80;;;;;;5116279;28;19922;-55
2023/10/03 10:54:25;;;;;;;;;;;20.40;87.80;;;;;;5116351;28;19912;-55
2023/10/03 10:57:00;;;;;;;;;;;20.40;87.80;;;;;;5116289;28;20429;-55
2023/10/03 10:59:26;;;;;;;;;;;20.40;87.90;;;;;;5116288;28;20014;-55
2023/10/03 11:01:51;;;;;;;;;;;20.40;87.90;;;;;;5116224;28;19970;-54
2023/10/03 11:04:23;;;;;;;;;;;20.40;88.00;;;;;;5116106;28;19908;-55
2023/10/03 11:06:55;;;;;;;;;;;20.40;88.70;;;;;;5116144;28;19943;-54
2023/10/03 11:09:20;;;;;;;;;;;20.40;88.90;;;;;;5098891;28;20268;-55
2023/10/03 11:11:46;;;;;;;;;;;20.40;89.50;;;;;;5116239;28;19951;-55
2023/10/03 11:14:11;;;;;;;;;;;20.30;89.60;;;;;;5097622;28;19914;-54
2023/10/03 11:16:37;;;;;;;;;;;20.30;90.30;;;;;;5115991;28;20007;-55
2023/10/03 11:19:04;;;;;;;;;;;20.30;90.40;;;;;;5115808;28;19930;-54
2023/10/03 11:21:30;;;;;;;;;;;20.20;90.80;;;;;;5115655;28;20331;-54
2023/10/03 11:24:08;;;;;;;;;;;20.20;91.20;;;;;;5097627;28;19908;-54
2023/10/03 11:26:44;;;;;;;;;;;20.20;91.40;;;;;;5097395;28;20276;-54
2023/10/03 11:29:09;;;;;;;;;;;20.20;91.80;;;;;;5115844;28;19911;-56
2023/10/03 11:31:38;;;;;;;;;;;20.20;91.60;;;;;;5115601;28;20382;-55
2023/10/03 11:34:04;;;;;;;;;;;20.20;91.50;;;;;;5115467;28;19908;-54
2023/10/03 11:36:39;;;;;;;;;;;20.20;91.50;;;;;;5115728;28;19931;-54
2023/10/03 11:39:04;;;;;;;;;;;20.20;91.60;;;;;;5097387;28;19908;-54
2023/10/03 11:41:33;;;;;;;;;;;20.20;91.50;;;;;;5115371;28;20379;-54
2023/10/03 11:43:59;;;;;;;;;;;20.20;91.50;;;;;;5080301;28;19907;-54
2023/10/03 11:46:25;;;;;;;;;;;20.20;91.50;;;;;;5097259;28;20435;-54
2023/10/03 11:48:57;;;;;;;;;;;20.20;91.40;;;;;;5115553;28;19951;-53
2023/10/03 11:51:23;;;;;;;;;;;20.20;91.30;;;;;;5114951;28;19981;-54
2023/10/03 11:53:49;;;;;;;;;;;20.30;91.20;;;;;;5115196;28;19912;-55
2023/10/03 11:56:14;;;;;;;;;;;20.20;91.30;;;;;;5099087;28;19915;-54
2023/10/03 11:58:39;;;;;;;;;;;20.30;91.10;;;;;;5094800;28;19912;-55
2023/10/03 12:01:05;;;;;;;;;;;20.20;91.00;;;;;;5094519;28;20283;-54
2023/10/03 12:03:31;;;;;;;;;;;20.20;90.90;;;;;;5094765;28;19908;-55
2023/10/03 12:05:57;;;;;;;;;;;20.20;90.80;;;;;;5094590;28;19908;-54
2023/10/03 12:08:23;;;;;;;;;;;20.20;90.60;;;;;;5094476;28;19912;-55
2023/10/03 12:10:49;;;;;;;;;;;20.20;90.40;;;;;;5094619;28;19954;-54
2023/10/03 12:13:15;;;;;;;;;;;20.20;90.40;;;;;;5094379;28;19940;-54
2023/10/03 12:15:45;;;;;;;;;;;20.20;90.30;;;;;;5110082;28;19908;-55
2023/10/03 12:18:11;;;;;;;;;;;20.20;90.30;;;;;;5094355;28;20375;-54
2023/10/03 12:20:38;;;;;;;;;;;20.20;90.30;;;;;;5094151;28;19999;-56
2023/10/03 12:23:04;;;;;;;;;;;20.10;90.30;;;;;;5094250;28;20116;-54
2023/10/03 12:25:29;;;;;;;;;;;20.10;90.30;;;;;;5077100;28;19951;-54
2023/10/03 12:27:55;;;;;;;;;;;20.10;90.20;;;;;;5076196;28;20484;-54
2023/10/03 12:30:20;;;;;;;;;;;20.10;90.20;;;;;;5094160;28;20367;-54
2023/10/03 12:32:46;;;;;;;;;;;20.00;90.10;;;;;;5094034;28;20364;-54
2023/10/03 12:35:12;;;;;;;;;;;20.00;90.00;;;;;;5094060;28;19908;-54
2023/10/03 12:37:38;;;;;;;;;;;20.10;90.00;;;;;;5075970;28;19908;-54
2023/10/03 12:40:13;;;;;;;;;;;20.10;89.80;;;;;;5093963;28;19908;-54
2023/10/03 12:42:47;;;;;;;;;;;20.10;89.80;;;;;;5094257;28;19940;-54
2023/10/03 12:45:15;;;;;;;;;;;20.00;89.00;;;;;;5093976;28;19961;-55
2023/10/03 12:47:46;;;;;;;;;;;20.00;88.90;;;;;;5093474;28;19915;-53
2023/10/03 12:50:13;;;;;;;;;;;20.00;88.60;;;;;;5094649;28;19912;-55
2023/10/03 12:52:39;;;;;;;;;;;20.00;88.20;;;;;;5094038;28;19938;-54
2023/10/03 12:55:07;;;;;;;;;;;20.00;87.90;;;;;;5094823;28;19912;-54
2023/10/03 12:57:32;;;;;;;;;;;20.00;87.60;;;;;;5093851;28;19908;-54
2023/10/03 12:59:57;;;;;;;;;;;20.00;87.70;;;;;;5093663;28;19915;-55
2023/10/03 13:02:23;;;;;;;;;;;20.00;87.30;;;;;;5093452;28;19927;-54
2023/10/03 13:04:48;;;;;;;;;;;20.00;87.40;;;;;;5093600;28;19968;-55
2023/10/03 13:07:15;;;;;;;;;;;20.10;86.90;;;;;;5093300;28;19951;-54
2023/10/03 13:09:40;;;;;;;;;;;20.10;86.80;;;;;;5093329;28;19908;-55
2023/10/03 13:12:06;;;;;;;;;;;20.10;86.90;;;;;;5093256;28;19931;-53
2023/10/03 13:14:32;;;;;;;;;;;20.00;86.70;;;;;;5093186;28;20256;-55
2023/10/03 13:16:59;;;;;;;;;;;20.10;86.70;;;;;;5093112;28;19957;-54
2023/10/03 13:19:27;;;;;;;;;;;20.00;86.60;;;;;;5093159;28;20417;-55
2023/10/03 13:21:53;;;;;;;;;;;20.10;86.40;;;;;;5093516;28;19912;-55
2023/10/03 13:24:20;;;;;;;;;;;20.10;86.50;;;;;;5075743;28;20384;-56
2023/10/03 13:26:45;;;;;;;;;;;20.10;86.30;;;;;;5093079;28;19912;-56
2023/10/03 13:29:11;;;;;;;;;;;20.10;86.20;;;;;;5093194;28;20015;-55
2023/10/03 13:31:37;;;;;;;;;;;20.10;86.00;;;;;;5093062;28;20264;-55
2023/10/03 13:34:02;;;;;;;;;;;20.10;85.90;;;;;;5092988;28;20287;-56
2023/10/03 13:36:28;;;;;;;;;;;20.10;85.90;;;;;;5074898;28;19970;-56
2023/10/03 13:38:54;;;;;;;;;;;20.10;85.60;;;;;;5092987;28;19908;-56
2023/10/03 13:41:20;;;;;;;;;;;20.00;85.50;;;;;;5092845;28;19923;-56
2023/10/03 13:43:45;;;;;;;;;;;20.00;85.30;;;;;;5092991;28;19912;-55
2023/10/03 13:46:11;;;;;;;;;;;20.00;85.10;;;;;;5092897;28;19912;-55
2023/10/03 13:48:37;;;;;;;;;;;20.00;84.90;;;;;;5093069;28;19973;-56
2023/10/03 13:51:03;;;;;;;;;;;20.00;84.80;;;;;;5092599;28;19908;-56
2023/10/03 13:53:31;;;;;;;;;;;20.00;84.60;;;;;;5092919;28;19912;-55
2023/10/03 13:55:58;;;;;;;;;;;20.00;84.20;;;;;;5093456;28;19931;-56
2023/10/03 13:58:24;;;;;;;;;;;20.00;84.10;;;;;;5074864;28;19912;-56
2023/10/03 14:00:49;;;;;;;;;;;20.00;84.10;;;;;;5096820;28;19943;-56
2023/10/03 14:03:17;;;;;;;;;;;20.00;83.90;;;;;;5078837;28;19909;-56
2023/10/03 14:05:45;;;;;;;;;;;20.00;83.80;;;;;;5096830;28;19908;-55
2023/10/03 14:08:10;;;;;;;;;;;20.00;83.90;;;;;;5096753;28;19915;-56
2023/10/03 14:10:43;;;;;;;;;;;20.00;83.70;;;;;;5096794;28;19912;-55
2023/10/03 14:13:08;;;;;;;;;;;20.00;83.50;;;;;;5112361;28;19908;-56
2023/10/03 14:15:37;;;;;;;;;;;20.00;83.50;;;;;;5096717;28;19912;-55
2023/10/03 14:18:03;;;;;;;;;;;19.90;84.20;;;;;;5096723;28;19958;-56
2023/10/03 14:20:29;;;;;;;;;;;19.90;83.40;;;;;;5096866;28;19998;-55